Home > Products > Valid Products > MTR

000
SAUS44 KMEG 181055
MTRTUP
METAR KTUP 181053Z 08005KT 1 3/4SM BR OVC003 16/15 A2997 RMK AO2
SLP144 T01610150





000
SAUS44 KMEG 181039
MTRTUP
SPECI KTUP 181038Z 09005KT 1 1/4SM BR OVC002 16/15 A2997 RMK AO2
T01610150





000
SAUS44 KMEG 181031
MTRTUP
SPECI KTUP 181030Z 08004KT 2SM BR OVC003 16/15 A2997 RMK AO2
T01610150





000
SAUS44 KMEG 181003
MTRTUP
SPECI KTUP 181002Z AUTO 09004KT 1SM BR VV003 16/15 A2999 RMK AO2
T01610150





000
SAUS44 KMEG 180954
MTRTUP
METAR KTUP 180953Z AUTO 08005KT 3/4SM BR VV002 16/15 A2999 RMK AO2
SLP152 T01610150





000
SAUS44 KMEG 180855
MTRTUP
METAR KTUP 180853Z AUTO 09004KT 3/4SM BR VV002 16/15 A2998 RMK AO2
SLP151 T01610150 53001





000
SAUS44 KMEG 180855
MTRTUP
METAR KTUP 180853Z AUTO 09004KT 3/4SM BR VV002 16/15 A2998 RMK AO2
SLP151 T01610150 53001





000
SAUS44 KMEG 180846
MTRTUP
SPECI KTUP 180845Z AUTO 07005KT 1SM BR VV002 16/15 A2999 RMK AO2
T01610150





000
SAUS44 KMEG 180837
MTRTUP
SPECI KTUP 180835Z AUTO 08004KT 2SM BR OVC002 16/15 A2998 RMK AO2
T01610150





000
SAUS44 KMEG 180754
MTRTUP
METAR KTUP 180753Z AUTO 09004KT 6SM BR OVC004 16/15 A2998 RMK AO2
SLP149 T01610150





000
SAUS44 KMEG 180740
MTRTUP
SPECI KTUP 180739Z AUTO 10004KT 8SM OVC004 16/15 A2998 RMK AO2
T01610150





000
SAUS44 KMEG 180740
MTRTUP
SPECI KTUP 180739Z AUTO 10004KT 8SM OVC004 16/15 A2998 RMK AO2
T01610150





000
SAUS44 KMEG 180718
MTRTUP
SPECI KTUP 180717Z AUTO 00000KT 6SM BR BKN005 16/14 A2998 RMK AO2
T01560144





000
SAUS44 KMEG 180705
MTRTUP
SPECI KTUP 180704Z AUTO 00000KT 4SM BR FEW006 16/14 A2998 RMK AO2
T01560144





000
SAUS44 KMEG 180654
MTRTUP
METAR KTUP 180653Z AUTO 00000KT 6SM BR CLR 16/14 A2998 RMK AO2
SLP149 T01560144





000
SAUS44 KMEG 180654
MTRTUP
METAR KTUP 180653Z AUTO 00000KT 6SM BR CLR 16/14 A2998 RMK AO2
SLP149 T01560144





000
SAUS44 KMEG 180554
MTRTUP
METAR KTUP 180553Z AUTO 06004KT 10SM CLR 16/15 A3000 RMK AO2 SLP156
T01610150 10206 20156 402110156 58006





000
SAUS44 KMEG 180454
MTRTUP
METAR KTUP 180453Z AUTO 04003KT 9SM FEW015 16/15 A3002 RMK AO2
SLP163 T01610150





000
SAUS44 KMEG 180354
MTRTUP
METAR KTUP 180353Z AUTO 06003KT 10SM CLR 16/15 A3001 RMK AO2 SLP160
T01610150





000
SAUS44 KMEG 180254
MTRTUP
METAR KTUP 180253Z AUTO 05003KT 8SM CLR 17/16 A3002 RMK AO2 SLP162
T01670156 50010





000
SAUS44 KMEG 180154
MTRTUP
METAR KTUP 180153Z AUTO 00000KT 10SM CLR 18/16 A3003 RMK AO2 SLP166
T01780161





000
SAUS44 KMEG 180054
MTRTUP
METAR KTUP 180053Z AUTO 04005KT 10SM FEW014 SCT021 18/16 A2999 RMK
AO2 SLP152 T01830161





000
SAUS44 KMEG 180054
MTRTUP
METAR KTUP 180053Z AUTO 04005KT 10SM FEW014 SCT021 18/16 A2999 RMK
AO2 SLP152 T01830161





000
SAUS44 KMEG 172354
MTRTUP
METAR KTUP 172353Z AUTO 07004KT 10SM OVC023 21/17 A2998 RMK AO2
SLP151 60021 T02060167 10211 20172 50005





000
SAUS44 KMEG 172354
MTRTUP
METAR KTUP 172353Z AUTO 07004KT 10SM OVC023 21/17 A2998 RMK AO2
SLP151 60021 T02060167 10211 20172 50005





000
SAUS44 KMEG 172324
MTRTUP
SPECI KTUP 172323Z AUTO 06004KT 10SM FEW015 BKN020 21/17 A2998 RMK
AO2 T02060167





000
SAUS44 KMEG 172324
MTRTUP
SPECI KTUP 172323Z AUTO 06004KT 10SM FEW015 BKN020 21/17 A2998 RMK
AO2 T02060167





000
SAUS44 KMEG 172314
MTRTUP
SPECI KTUP 172313Z AUTO 09004KT 10SM SCT020 21/16 A2999 RMK AO2
T02060161





000
SAUS44 KMEG 172254
MTRTUP
METAR KTUP 172253Z AUTO 00000KT 10SM OVC019 21/17 A2999 RMK AO2
SLP152 T02060167





000
SAUS44 KMEG 172254
MTRTUP
METAR KTUP 172253Z AUTO 00000KT 10SM OVC019 21/17 A2999 RMK AO2
SLP152 T02060167





000
SAUS44 KMEG 172154
MTRTUP
METAR KTUP 172153Z AUTO 09007KT 10SM BKN016 OVC110 20/17 A2997 RMK
AO2 SLP144 T02000167





000
SAUS44 KMEG 172150
MTRTUP
SPECI KTUP 172149Z AUTO 09006KT 10SM BKN016 OVC110 20/17 A2997 RMK
AO2





000
SAUS44 KMEG 172128
MTRTUP
SPECI KTUP 172127Z AUTO 09005KT 10SM SCT009 BKN014 OVC110 20/17
A2997 RMK AO2 T02000172





000
SAUS44 KMEG 172109
MTRTUP
SPECI KTUP 172108Z AUTO 00000KT 10SM SCT009 OVC015 20/17 A2998 RMK
AO2 T02000172





000
SAUS44 KMEG 172054
MTRTUP
METAR KTUP 172053Z AUTO 00000KT 10SM BKN009 OVC017 19/17 A2998 RMK
AO2 SLP150 60021 T01940172 56033





000
SAUS44 KMEG 171954
MTRTUP
METAR KTUP 171953Z AUTO 04006KT 10SM BKN007 BKN075 OVC090 19/17
A3000 RMK AO2 RAE13B21E49 SLP156 P0002 T01940172





000
SAUS44 KMEG 171914
MTRTUP
SPECI KTUP 171913Z 14008KT 10SM FEW005 SCT080 OVC100 18/17 A3001 RMK
AO2 RAE13 PRESFR P0000 T01830167





000
SAUS44 KMEG 171854
MTRTUP
METAR KTUP 171853Z 12008KT 10SM -RA FEW060 OVC100 18/17 A3003 RMK
AO2 SLP168 P0019 T01780167





000
SAUS44 KMEG 171854
MTRTUP
METAR KTUP 171853Z 12008KT 10SM -RA FEW060 OVC100 18/17 A3003 RMK
AO2 SLP168 P0019 T01780167





000
SAUS44 KMEG 171836
MTRTUP
SPECI KTUP 171834Z 14007KT 5SM RA BR SCT015 BKN065 OVC090 17/16
A3005 RMK AO2 PRESFR P0017 T01720161





000
SAUS44 KMEG 171822
MTRTUP
SPECI KTUP 171820Z 11004KT 4SM RA BR FEW004 BKN017 OVC050 17/16
A3008 RMK AO2 P0013 T01720161





000
SAUS44 KMEG 171822
MTRTUP
SPECI KTUP 171820Z 11004KT 4SM RA BR FEW004 BKN017 OVC050 17/16
A3008 RMK AO2 P0013 T01720161





000
SAUS44 KMEG 171813
MTRTUP
SPECI KTUP 171812Z 10004KT 3SM RA BR FEW015 BKN034 OVC060 17/16
A3008 RMK AO2 P0010 T01720161





000
SAUS44 KMEG 171754
MTRTUP
METAR KTUP 171753Z 13005KT 2SM +RA BR FEW013 BKN032 OVC060 17/16
A3008 RMK AO2 SLP183 P0027 60111 T01720161 10178 20172 50005





000
SAUS44 KMEG 171754
MTRTUP
METAR KTUP 171753Z 13005KT 2SM +RA BR FEW013 BKN032 OVC060 17/16
A3008 RMK AO2 SLP183 P0027 60111 T01720161 10178 20172 50005





000
SAUS44 KMEG 171749
MTRTUP
SPECI KTUP 171747Z 13005KT 2 1/2SM +RA BR SCT009 BKN030 OVC060 17/16
A3008 RMK AO2 P0023





000
SAUS44 KMEG 171749
MTRTUP
SPECI KTUP 171747Z 13005KT 2 1/2SM +RA BR SCT009 BKN030 OVC060 17/16
A3008 RMK AO2 P0023





000
SAUS44 KMEG 171740
MTRTUP
SPECI KTUP 171739Z 12004KT 2 1/2SM +RA BR SCT006 BKN012 OVC025 17/16
A3008 RMK AO2 P0018 T01720161





000
SAUS44 KMEG 171734
MTRTUP
SPECI KTUP 171733Z 10005KT 4SM RA BR SCT007 BKN024 OVC042 17/16
A3008 RMK AO2 P0015 T01720156





000
SAUS44 KMEG 171734
MTRTUP
SPECI KTUP 171733Z 10005KT 4SM RA BR SCT007 BKN024 OVC042 17/16
A3008 RMK AO2 P0015 T01720156





000
SAUS44 KMEG 171655
MTRTUP
METAR KTUP 171653Z 07004KT 3SM RA BR OVC005 17/16 A3009 RMK AO2
SLP185 P0020 T01720161





000
SAUS44 KMEG 171655
MTRTUP
METAR KTUP 171653Z 07004KT 3SM RA BR OVC005 17/16 A3009 RMK AO2
SLP185 P0020 T01720161





000
SAUS44 KMEG 171633
MTRTUP
SPECI KTUP 171632Z 07006KT 4SM RA BR BKN007 OVC025 17/16 A3008 RMK
AO2 P0014 T01720156





000
SAUS44 KMEG 171617
MTRTUP
SPECI KTUP 171616Z 05003KT 2 1/2SM RA BR BKN007 OVC021 18/16 A3007
RMK AO2 P0008 T01780161





000
SAUS44 KMEG 171554
MTRTUP
METAR KTUP 171553Z 09005KT 9SM -RA BKN006 BKN010 OVC049 18/16 A3007
RMK AO2 SLP180 P0015 T01780161





000
SAUS44 KMEG 171537
MTRTUP
SPECI KTUP 171536Z 06005KT 3SM -RA BR SCT007 BKN010 OVC049 17/16
A3007 RMK AO2 P0014 T01720156





000
SAUS44 KMEG 171534
MTRTUP
SPECI KTUP 171533Z 06005KT 2SM RA BR BKN007 BKN012 OVC047 17/16
A3007 RMK AO2 P0014 T01720156





000
SAUS44 KMEG 171534
MTRTUP
SPECI KTUP 171533Z 06005KT 2SM RA BR BKN007 BKN012 OVC047 17/16
A3007 RMK AO2 P0014 T01720156





000
SAUS44 KMEG 171506
MTRTUP
SPECI KTUP 171505Z 10006KT 6SM -RA BR SCT006 OVC009 18/16 A3007 RMK
AO2 CIG 008V013 P0001 T01780161





000
SAUS44 KMEG 171506
MTRTUP
SPECI KTUP 171505Z 10006KT 6SM -RA BR SCT006 OVC009 18/16 A3007 RMK
AO2 CIG 008V013 P0001 T01780161





000
SAUS44 KMEG 171454
MTRTUP
METAR KTUP 171453Z 11006KT 9SM -RA BKN010 OVC015 18/16 A3006 RMK AO2
CIG 005V012 SLP178 P0006 60049 T01780161 50001





000
SAUS44 KMEG 171426
MTRTUP
SPECI KTUP 171424Z 12005KT 7SM -RA BKN005 OVC023 18/16 A3006 RMK AO2
P0003 T01780161





000
SAUS44 KMEG 171416
MTRTUP
SPECI KTUP 171414Z 12005KT 7SM -RA BKN004 BKN025 OVC050 18/16 A3006
RMK AO2 P0002 T01780161





000
SAUS44 KMEG 171405
MTRTUP
SPECI KTUP 171404Z 14006KT 6SM -RA BR BKN005 OVC055 18/16 A3007 RMK
AO2 P0001 T01780161





000
SAUS44 KMEG 171354
MTRTUP
METAR KTUP 171353Z 15005KT 5SM VCTS -RA BR BKN005 BKN044 OVC055
17/16 A3007 RMK AO2 SLP179 P0041 T01720161





000
SAUS44 KMEG 171354
MTRTUP
METAR KTUP 171353Z 15005KT 5SM VCTS -RA BR BKN005 BKN044 OVC055
17/16 A3007 RMK AO2 SLP179 P0041 T01720161





000
SAUS44 KMEG 171345
MTRTUP
SPECI KTUP 171343Z 14003KT 5SM VCTS -RA BR BKN006 BKN021 OVC055
17/16 A3007 RMK AO2 P0038 T01720161





000
SAUS44 KMEG 171336
MTRTUP
SPECI KTUP 171335Z 14005KT 2 1/2SM RA BR SCT006 BKN013 OVC055 17/16
A3007 RMK AO2 P0036 T01720161





000
SAUS44 KMEG 171330
MTRTUP
SPECI KTUP 171329Z 14004KT 1 1/4SM +RA BR SCT006 BKN017 OVC055 17/16
A3007 RMK AO2 P0032 T01720161





000
SAUS44 KMEG 171311
MTRTUP
SPECI KTUP 171310Z 15006KT 1 3/4SM +RA BR BKN005 BKN016 OVC047 17/16
A3008 RMK AO2 P0013 T01720156





000
SAUS44 KMEG 171311
MTRTUP
SPECI KTUP 171310Z 15006KT 1 3/4SM +RA BR BKN005 BKN016 OVC047 17/16
A3008 RMK AO2 P0013 T01720156





000
SAUS44 KMEG 171302
MTRTUP
SPECI KTUP 171301Z 15006KT 2SM +RA BR OVC004 17/16 A3008 RMK AO2 CIG
003V007 P0006 T01720161





000
SAUS44 KMEG 171255
MTRTUP
METAR KTUP 171253Z 16004KT 3SM RA BR OVC004 17/16 A3008 RMK AO2
RAB24 SLP182 P0002 T01720161





000
SAUS44 KMEG 171255
MTRTUP
METAR KTUP 171253Z 16004KT 3SM RA BR OVC004 17/16 A3008 RMK AO2
RAB24 SLP182 P0002 T01720161





000
SAUS44 KMEG 171210
MTRTUP
SPECI KTUP 171208Z 15006KT 4SM BR OVC004 17/16 A3006 RMK AO2
T01720161





000
SAUS44 KMEG 171210
MTRTUP
SPECI KTUP 171208Z 15006KT 4SM BR OVC004 17/16 A3006 RMK AO2
T01720161





000
SAUS44 KMEG 171154
MTRTUP
METAR KTUP 171153Z 13007KT 2 1/2SM BR OVC004 17/16 A3006 RMK AO2
SLP177 70025 T01720161 10183 20172 53002





000
SAUS44 KMEG 171054
MTRTUP
METAR KTUP 171053Z 13005KT 8SM OVC004 18/16 A3006 RMK AO2 SLP175
T01780161





000
SAUS44 KMEG 171054
MTRTUP
METAR KTUP 171053Z 13005KT 8SM OVC004 18/16 A3006 RMK AO2 SLP175
T01780161





000
SAUS44 KMEG 170954
MTRTUP
METAR KTUP 170953Z AUTO 16008KT 7SM OVC004 18/16 A3004 RMK AO2
SLP170 T01780161





000
SAUS44 KMEG 170946
MTRTUP
SPECI KTUP 170945Z AUTO 15008KT 6SM BR OVC004 18/16 A3005 RMK AO2
T01780161





000
SAUS44 KMEG 170946
MTRTUP
SPECI KTUP 170945Z AUTO 15008KT 6SM BR OVC004 18/16 A3005 RMK AO2
T01780161





000
SAUS44 KMEG 170854
MTRTUP
METAR KTUP 170853Z AUTO 16005KT 10SM OVC006 18/16 A3006 RMK AO2
SLP174 T01780161 56007





000
SAUS44 KMEG 170754
MTRTUP
METAR KTUP 170753Z AUTO 15006KT 10SM BKN006 OVC010 18/17 A3006 RMK
AO2 CIG 005V009 SLP175 T01830167





000
SAUS44 KMEG 170654
MTRTUP
METAR KTUP 170653Z AUTO 14008KT 9SM OVC006 18/17 A3006 RMK AO2
SLP175 T01830167





000
SAUS44 KMEG 170554
MTRTUP
METAR KTUP 170553Z AUTO 16008KT 10SM OVC007 18/17 A3008 RMK AO2 CIG
006V010 SLP181 60023 T01830167 10200 20183 402830183 50004





000
SAUS44 KMEG 170554
MTRTUP
METAR KTUP 170553Z AUTO 16008KT 10SM OVC007 18/17 A3008 RMK AO2 CIG
006V010 SLP181 60023 T01830167 10200 20183 402830183 50004





000
SAUS44 KMEG 170454
MTRTUP
METAR KTUP 170453Z AUTO 16007KT 10SM OVC007 18/17 A3008 RMK AO2
SLP183 T01830167





000
SAUS44 KMEG 170413
MTRTUP
SPECI KTUP 170411Z AUTO 16006KT 10SM OVC007 18/17 A3007 RMK AO2 CIG
006V010 T01830167





000
SAUS44 KMEG 170404
MTRTUP
SPECI KTUP 170403Z AUTO 14006KT 10SM OVC010 18/17 A3007 RMK AO2 CIG
006V012 T01830167





000
SAUS44 KMEG 170354
MTRTUP
METAR KTUP 170353Z AUTO 14004KT 10SM OVC009 19/17 A3007 RMK AO2 CIG
006V012 SLP179 T01890172





000
SAUS44 KMEG 170354
MTRTUP
METAR KTUP 170353Z AUTO 14004KT 10SM OVC009 19/17 A3007 RMK AO2 CIG
006V012 SLP179 T01890172





000
SAUS44 KMEG 170254
MTRTUP
METAR KTUP 170253Z 17005KT 10SM OVC007 19/17 A3007 RMK AO2 CIG
006V011 SLP177 60023 T01890172 53000





000
SAUS44 KMEG 170154
MTRTUP
METAR KTUP 170153Z 18005KT 10SM OVC006 19/17 A3005 RMK AO2 SLP172
T01890172





000
SAUS44 KMEG 170154
MTRTUP
METAR KTUP 170153Z 18005KT 10SM OVC006 19/17 A3005 RMK AO2 SLP172
T01890172





000
SAUS44 KMEG 170127
MTRTUP
SPECI KTUP 170126Z 12004KT 10SM BKN006 BKN100 19/18 A3004 RMK AO2
T01940178





000
SAUS44 KMEG 170127
MTRTUP
SPECI KTUP 170126Z 12004KT 10SM BKN006 BKN100 19/18 A3004 RMK AO2
T01940178





000
SAUS44 KMEG 170118
MTRTUP
SPECI KTUP 170117Z 11003KT 10SM SCT008 BKN100 19/18 A3005 RMK AO2
T01890178





000
SAUS44 KMEG 170054
MTRTUP
METAR KTUP 170053Z 19007KT 10SM FEW033 SCT070 BKN120 19/17 A3005 RMK
AO2 RAE45 TSB2358E13B16E31 SLP172 P0023 T01890172





000
SAUS44 KMEG 170054
MTRTUP
METAR KTUP 170053Z 19007KT 10SM FEW033 SCT070 BKN120 19/17 A3005 RMK
AO2 RAE45 TSB2358E13B16E31 SLP172 P0023 T01890172





000
SAUS44 KMEG 170039
MTRTUP
SPECI KTUP 170037Z 17005KT 10SM -RA FEW047 BKN090 OVC120 19/18 A3005
RMK AO2 TSB2358E13B16E31 P0023 T01940178





000
SAUS44 KMEG 170009
MTRTUP
SPECI KTUP 170007Z 14007KT 3SM -TSRA BR SCT008 BKN041 OVC095 19/18
A3006 RMK AO2 LTG DSNT E TSB2358 P0021 T01940178





000
SAUS44 KMEG 170009
MTRTUP
SPECI KTUP 170007Z 14007KT 3SM -TSRA BR SCT008 BKN041 OVC095 19/18
A3006 RMK AO2 LTG DSNT E TSB2358 P0021 T01940178





000
SAUS44 KMEG 170001
MTRTUP
SPECI KTUP 170000Z 16007KT 1SM +TSRA BR SCT008 BKN036 OVC070 19/18
A3006 RMK AO2 LTG DSNT E TSB2358 P0015 T01940178





000
SAUS44 KMEG 170001
MTRTUP
SPECI KTUP 170000Z 16007KT 1SM +TSRA BR SCT008 BKN036 OVC070 19/18
A3006 RMK AO2 LTG DSNT E TSB2358 P0015 T01940178





000
SAUS44 KMEG 162354
MTRTUP
METAR KTUP 162353Z 18006KT 1 3/4SM VCTS RA BR BKN008 BKN014 OVC045
20/18 A3006 RMK AO2 RAB40 SLP178 P0002 60002 T02000178 10283 20200
51019





000
SAUS44 KMEG 162354
MTRTUP
METAR KTUP 162353Z 18006KT 1 3/4SM VCTS RA BR BKN008 BKN014 OVC045
20/18 A3006 RMK AO2 RAB40 SLP178 P0002 60002 T02000178 10283 20200
51019





000
SAUS44 KMEG 162341
MTRTUP
SPECI KTUP 162340Z 16003KT 10SM VCTS -RA BKN009 BKN041 OVC050 20/18
A3006 RMK AO2 LTG DSNT E AND S AND W RAB40 CIG 007V014 P0000
T02000178





000
SAUS44 KMEG 162341
MTRTUP
SPECI KTUP 162340Z 16003KT 10SM VCTS -RA BKN009 BKN041 OVC050 20/18
A3006 RMK AO2 LTG DSNT E AND S AND W RAB40 CIG 007V014 P0000
T02000178





000
SAUS44 KMEG 162325
MTRTUP
SPECI KTUP 162324Z 17007KT 10SM VCTS SCT008 BKN044 BKN050 20/18
A3005 RMK AO2 LTG DSNT ALQDS T02000178





000
SAUS44 KMEG 162325
MTRTUP
SPECI KTUP 162324Z 17007KT 10SM VCTS SCT008 BKN044 BKN050 20/18
A3005 RMK AO2 LTG DSNT ALQDS T02000178





000
SAUS44 KMEG 162316
MTRTUP
SPECI KTUP 162315Z 16009KT 10SM VCTS SCT010 SCT036 BKN049 21/17
A3005 RMK AO2 LTG DSNT E-SW T02060172





000
SAUS44 KMEG 162316
MTRTUP
SPECI KTUP 162315Z 16009KT 10SM VCTS SCT010 SCT036 BKN049 21/17
A3005 RMK AO2 LTG DSNT E-SW T02060172





000
SAUS44 KMEG 162308
MTRTUP
SPECI KTUP 162307Z 16012KT 10SM SCT011 SCT023 BKN043 21/17 A3004 RMK
AO2 LTG DSNT E-SW T02060172





000
SAUS44 KMEG 162308
MTRTUP
SPECI KTUP 162307Z 16012KT 10SM SCT011 SCT023 BKN043 21/17 A3004 RMK
AO2 LTG DSNT E-SW T02060172





000
SAUS44 KMEG 162254
MTRTUP
METAR KTUP 162253Z 14009G20KT 10SM BKN011 BKN022 OVC031 21/18 A3004
RMK AO2 LTG DSNT SE AND S SLP170 T02110178





000
SAUS44 KMEG 162232
MTRTUP
SPECI KTUP 162231Z 15014KT 10SM BKN011 BKN050 OVC080 22/18 A3004 RMK
AO2 LTG DSNT SE-SW T02170183





000
SAUS44 KMEG 162232
MTRTUP
SPECI KTUP 162231Z 15014KT 10SM BKN011 BKN050 OVC080 22/18 A3004 RMK
AO2 LTG DSNT SE-SW T02170183





000
SAUS44 KMEG 162223
MTRTUP
SPECI KTUP 162222Z 16013KT 10SM SCT011 BKN050 OVC065 22/18 A3003 RMK
AO2 LTG DSNT SE-SW T02220183





000
SAUS44 KMEG 162208
MTRTUP
SPECI KTUP 162207Z 16012KT 10SM VCTS SCT036 BKN050 OVC085 22/18
A3003 RMK AO2 LTG DSNT SE AND S T02220183





000
SAUS44 KMEG 162154
MTRTUP
METAR KTUP 162153Z 15012KT 10SM OVC035 23/18 A3003 RMK AO2 LTG DSNT
S SLP165 T02280183





000
SAUS44 KMEG 162054
MTRTUP
METAR KTUP 162053Z 13010KT 10SM FEW020 OVC037 24/18 A3001 RMK AO2
LTG DSNT E AND S SLP157 T02440183 56016





000
SAUS44 KMEG 162054
MTRTUP
METAR KTUP 162053Z 13010KT 10SM FEW020 OVC037 24/18 A3001 RMK AO2
LTG DSNT E AND S SLP157 T02440183 56016





000
SAUS44 KMEG 161954
MTRTUP
METAR KTUP 161953Z VRB03KT 10SM FEW090 28/18 A3002 RMK AO2 LTG DSNT
SE AND S SLP160 T02780178





000
SAUS44 KMEG 161954
MTRTUP
METAR KTUP 161953Z VRB03KT 10SM FEW090 28/18 A3002 RMK AO2 LTG DSNT
SE AND S SLP160 T02780178





000
SAUS44 KMEG 161854
MTRTUP
METAR KTUP 161853Z 00000KT 10SM FEW034 BKN055 BKN070 26/18 A3004 RMK
AO2 LTG DSNT SW SLP168 T02610178





000
SAUS44 KMEG 161834
MTRTUP
SPECI KTUP 161833Z 23004KT 10SM FEW026 BKN034 26/18 A3005 RMK AO2
T02560178





000
SAUS44 KMEG 161820
MTRTUP
SPECI KTUP 161818Z 00000KT 10SM BKN028 26/18 A3005 RMK AO2 T02610178





000
SAUS44 KMEG 161754
MTRTUP
METAR KTUP 161753Z 33006KT 10SM FEW020 FEW026 26/19 A3005 RMK AO2
SLP173 T02610189 10261 20194 58007





000
SAUS44 KMEG 161754
MTRTUP
METAR KTUP 161753Z 33006KT 10SM FEW020 FEW026 26/19 A3005 RMK AO2
SLP173 T02610189 10261 20194 58007





000
SAUS44 KMEG 161728
MTRTUP
SPECI KTUP 161727Z VRB05KT 10SM FEW015 SCT023 25/19 A3007 RMK AO2
T02500189





000
SAUS44 KMEG 161728
MTRTUP
SPECI KTUP 161727Z VRB05KT 10SM FEW015 SCT023 25/19 A3007 RMK AO2
T02500189





000
SAUS44 KMEG 161655
MTRTUP
METAR KTUP 161653Z VRB03KT 10SM SCT014 OVC020 23/19 A3008 RMK AO2
SLP184 T02330189





000
SAUS44 KMEG 161639
MTRTUP
SPECI KTUP 161638Z 22003KT 10SM BKN015 OVC020 23/19 A3009 RMK AO2
T02280189





000
SAUS44 KMEG 161639
MTRTUP
SPECI KTUP 161638Z 22003KT 10SM BKN015 OVC020 23/19 A3009 RMK AO2
T02280189





000
SAUS44 KMEG 161630
MTRTUP
SPECI KTUP 161629Z VRB03KT 10SM OVC013 22/19 A3009 RMK AO2 T02220189





000
SAUS44 KMEG 161621
MTRTUP
SPECI KTUP 161620Z VRB03KT 10SM OVC015 23/19 A3009 RMK AO2 T02280189





000
SAUS44 KMEG 161621
MTRTUP
SPECI KTUP 161620Z VRB03KT 10SM OVC015 23/19 A3009 RMK AO2 T02280189





000
SAUS44 KMEG 161554
MTRTUP
METAR KTUP 161553Z 00000KT 10SM BKN010 OVC015 22/19 A3009 RMK AO2
CIG 008V013 SLP185 T02220189





000
SAUS44 KMEG 161540
MTRTUP
SPECI KTUP 161539Z 28004KT 10SM OVC010 22/18 A3009 RMK AO2 CIG
008V012 T02170183





000
SAUS44 KMEG 161454
MTRTUP
METAR KTUP 161453Z 27004KT 10SM BKN009 OVC015 22/18 A3007 RMK AO2
CIG 007V012 SLP180 T02170183 51011





000
SAUS44 KMEG 161354
MTRTUP
METAR KTUP 161353Z 23004KT 10SM OVC008 21/18 A3007 RMK AO2 LTG DSNT
E SLP179 T02060183





000
SAUS44 KMEG 161254
MTRTUP
METAR KTUP 161253Z 22005KT 10SM OVC009 19/18 A3006 RMK AO2 LTG DSNT
NE CIG 008V012 SLP176 T01940178





000
SAUS44 KMEG 161254
MTRTUP
METAR KTUP 161253Z 22005KT 10SM OVC009 19/18 A3006 RMK AO2 LTG DSNT
NE CIG 008V012 SLP176 T01940178





000
SAUS44 KMEG 161154
MTRTUP
METAR KTUP 161153Z 21004KT 10SM OVC013 19/18 A3004 RMK AO2 SLP169
P0001 60004 70005 T01940178 10211 20183 53009





000
SAUS44 KMEG 161054
MTRTUP
METAR KTUP 161053Z 00000KT 10SM BKN014 BKN019 OVC025 19/17 A3003 RMK
AO2 RAB32E49 SLP165 P0003 T01940172





000
SAUS44 KMEG 161054
MTRTUP
METAR KTUP 161053Z 00000KT 10SM BKN014 BKN019 OVC025 19/17 A3003 RMK
AO2 RAB32E49 SLP165 P0003 T01940172





000
SAUS44 KMEG 161011
MTRTUP
SPECI KTUP 161010Z AUTO 00000KT 10SM BKN016 BKN024 OVC055 19/17
A3002 RMK AO2 T01940172





000
SAUS44 KMEG 160954
MTRTUP
METAR KTUP 160953Z AUTO 21004KT 10SM FEW014 BKN060 19/17 A3001 RMK
AO2 SLP159 T01890167





000
SAUS44 KMEG 160854
MTRTUP
METAR KTUP 160853Z AUTO 24003KT 10SM BKN043 BKN050 OVC085 19/18
A3001 RMK AO2 LTG DSNT SW SLP160 T01940178 53003





000
SAUS44 KMEG 160754
MTRTUP
METAR KTUP 160753Z AUTO 21006KT 10SM CLR 19/17 A3001 RMK AO2 SLP158
T01940172





000
SAUS44 KMEG 160754
MTRTUP
METAR KTUP 160753Z AUTO 21006KT 10SM CLR 19/17 A3001 RMK AO2 SLP158
T01940172





000
SAUS44 KMEG 160654
MTRTUP
METAR KTUP 160653Z AUTO 19003KT 10SM FEW110 20/17 A3000 RMK AO2
SLP155 T02000172





000
SAUS44 KMEG 160554
MTRTUP
METAR KTUP 160553Z AUTO 18007KT 10SM BKN120 21/17 A3001 RMK AO2
SLP157 T02110172 10239 20200 402610167 58001





000
SAUS44 KMEG 160554
MTRTUP
METAR KTUP 160553Z AUTO 18007KT 10SM BKN120 21/17 A3001 RMK AO2
SLP157 T02110172 10239 20200 402610167 58001





000
SAUS44 KMEG 160454
MTRTUP
METAR KTUP 160453Z AUTO 20007KT 10SM SCT045 SCT120 20/17 A3001 RMK
AO2 SLP157 T02000172





000
SAUS44 KMEG 160354
MTRTUP
METAR KTUP 160353Z AUTO 20006KT 10SM FEW045 22/17 A3002 RMK AO2
SLP162 T02170167





000
SAUS44 KMEG 160354
MTRTUP
METAR KTUP 160353Z AUTO 20006KT 10SM FEW045 22/17 A3002 RMK AO2
SLP162 T02170167





000
SAUS44 KMEG 160254
MTRTUP
METAR KTUP 160253Z 17005KT 10SM CLR 22/17 A3001 RMK AO2 SLP158
T02220167 53014





000
SAUS44 KMEG 160254
MTRTUP
METAR KTUP 160253Z 17005KT 10SM CLR 22/17 A3001 RMK AO2 SLP158
T02220167 53014





000
SAUS44 KMEG 160154
MTRTUP
METAR KTUP 160153Z 18006KT 10SM CLR 23/17 A3000 RMK AO2 SLP153
T02280167





000
SAUS44 KMEG 160054
MTRTUP
METAR KTUP 160053Z 17004KT 10SM FEW120 23/17 A2998 RMK AO2 SLP147
T02280167





000
SAUS44 KMEG 152354
MTRTUP
METAR KTUP 152353Z 18005KT 10SM CLR 24/17 A2997 RMK AO2 RAB04E16
SLP143 P0001 60001 T02390172 10261 20233 55003





000
SAUS44 KMEG 152254
MTRTUP
METAR KTUP 152253Z 20010KT 10SM FEW045 FEW055 24/16 A2996 RMK AO2
SLP143 T02440161





000
SAUS44 KMEG 152154
MTRTUP
METAR KTUP 152153Z 19008KT 10SM FEW045 SCT070 25/16 A2996 RMK AO2
SLP142 T02500161





000
SAUS44 KMEG 152054
MTRTUP
METAR KTUP 152053Z 20007KT 10SM FEW050 SCT060 BKN075 26/17 A2997 RMK
AO2 SLP146 T02560172 56016





000
SAUS44 KMEG 151954
MTRTUP
METAR KTUP 151953Z 19005KT 10SM SCT065 26/18 A2999 RMK AO2 SLP151
T02560178





000
SAUS44 KMEG 151854
MTRTUP
METAR KTUP 151853Z 19006KT 10SM FEW028 FEW034 SCT055 25/17 A3000 RMK
AO2 SLP156 T02500167





000
SAUS44 KMEG 151854
MTRTUP
METAR KTUP 151853Z 19006KT 10SM FEW028 FEW034 SCT055 25/17 A3000 RMK
AO2 SLP156 T02500167





000
SAUS44 KMEG 151754
MTRTUP
METAR KTUP 151753Z 19008KT 10SM FEW024 SCT036 BKN046 24/17 A3002 RMK
AO2 SLP163 T02390172 10239 20172 58003





000
SAUS44 KMEG 151747
MTRTUP
SPECI KTUP 151746Z 20007KT 10SM FEW020 BKN042 OVC049 23/17 A3002 RMK
AO2 T02330172





000
SAUS44 KMEG 151747
MTRTUP
SPECI KTUP 151746Z 20007KT 10SM FEW020 BKN042 OVC049 23/17 A3002 RMK
AO2 T02330172





000
SAUS44 KMEG 151654
MTRTUP
METAR KTUP 151653Z 20007KT 10SM SCT016 BKN020 OVC029 23/18 A3003 RMK
AO2 SLP165 T02280178





000
SAUS44 KMEG 151654
MTRTUP
METAR KTUP 151653Z 20007KT 10SM SCT016 BKN020 OVC029 23/18 A3003 RMK
AO2 SLP165 T02280178





000
SAUS44 KMEG 151644
MTRTUP
SPECI KTUP 151642Z 18006KT 10SM SCT016 BKN023 OVC029 23/18 A3003 RMK
AO2 T02280178





000
SAUS44 KMEG 151635
MTRTUP
SPECI KTUP 151634Z 20006KT 10SM BKN014 OVC021 21/17 A3003 RMK AO2
T02110172





000
SAUS44 KMEG 151635
MTRTUP
SPECI KTUP 151634Z 20006KT 10SM BKN014 OVC021 21/17 A3003 RMK AO2
T02110172





000
SAUS44 KMEG 151606
MTRTUP
SPECI KTUP 151604Z 18006KT 10SM SCT012 OVC020 21/18 A3003 RMK AO2
T02110178





000
SAUS44 KMEG 151606
MTRTUP
SPECI KTUP 151604Z 18006KT 10SM SCT012 OVC020 21/18 A3003 RMK AO2
T02110178





000
SAUS44 KMEG 151554
MTRTUP
METAR KTUP 151553Z 19008KT 10SM BKN012 OVC019 21/17 A3004 RMK AO2
SLP169 T02060172





000
SAUS44 KMEG 151541
MTRTUP
SPECI KTUP 151540Z 19006KT 10SM OVC011 20/17 A3004 RMK AO2 T02000172





000
SAUS44 KMEG 151541
MTRTUP
SPECI KTUP 151540Z 19006KT 10SM OVC011 20/17 A3004 RMK AO2 T02000172





000
SAUS44 KMEG 151454
MTRTUP
METAR KTUP 151453Z 20007KT 10SM BKN007 OVC012 20/17 A3003 RMK AO2
SLP167 T02000172 51011





000
SAUS44 KMEG 151413
MTRTUP
SPECI KTUP 151412Z 21008KT 8SM OVC005 19/17 A3003 RMK AO2 T01890172





000
SAUS44 KMEG 151354
MTRTUP
METAR KTUP 151353Z 21007KT 8SM OVC004 19/17 A3002 RMK AO2 SLP164
T01890172





000
SAUS44 KMEG 151354
MTRTUP
METAR KTUP 151353Z 21007KT 8SM OVC004 19/17 A3002 RMK AO2 SLP164
T01890172





000
SAUS44 KMEG 151321
MTRTUP
SPECI KTUP 151320Z 21007KT 7SM OVC004 18/17 A3002 RMK AO2 T01830167





000
SAUS44 KMEG 151254
MTRTUP
METAR KTUP 151253Z 20006KT 7SM OVC006 18/16 A3001 RMK AO2 SLP161
T01780161





000
SAUS44 KMEG 151254
MTRTUP
METAR KTUP 151253Z 20006KT 7SM OVC006 18/16 A3001 RMK AO2 SLP161
T01780161





000
SAUS44 KMEG 151154
MTRTUP
METAR KTUP 151153Z 16004KT 5SM BR OVC005 17/16 A3000 RMK AO2 SLP155
60001 70001 T01720156 10172 20167 51009





000
SAUS44 KMEG 151154
MTRTUP
METAR KTUP 151153Z 16004KT 5SM BR OVC005 17/16 A3000 RMK AO2 SLP155
60001 70001 T01720156 10172 20167 51009





    US Dept of Commerce
    National Oceanic and Atmospheric Administration
    National Weather Service
    1325 East West Highway
    Silver Spring, MD 20910
    Page Author: NWS Internet Services Team
Disclaimer
Information Quality
Credits
Glossary
Privacy Policy
Freedom of Information Act (FOIA)
About Us
Career Opportunities